Time;durP1;ratioP1;P1;durP2;ratioP2;P2;SDS_P1;SDS_P2;PMS_P1;PMS_P2;Temp;Humidity;BMP_temperature;BMP_pressure;BME280_temperature;BME280_humidity;BME280_pressure;Samples;Min_cycle;Max_cycle;Signal;HPM_P1;HPM_P2
2022/08/02 00:02:18;;;;;;;8.10;3.85;;;;;;;-148.88;91.79;75830.03;4996720;28;20393;-87
2022/08/02 00:04:44;;;;;;;8.60;3.95;;;;;;;-148.88;91.58;75828.00;4995326;28;20027;-87
2022/08/02 00:07:09;;;;;;;7.25;3.50;;;;;;;-148.88;91.09;75823.94;4996477;28;20033;-87
2022/08/02 00:09:35;;;;;;;9.25;3.65;;;;;;;-148.88;90.59;75821.91;4995306;28;20026;-87
2022/08/02 00:12:00;;;;;;;9.38;3.78;;;;;;;-148.88;90.68;75817.84;4995166;28;20030;-85
2022/08/02 00:14:25;;;;;;;10.45;3.92;;;;;;;-148.88;90.80;75821.91;4996507;28;20042;-86
2022/08/02 00:16:51;;;;;;;6.32;3.83;;;;;;;-148.88;91.04;75817.84;4996366;28;20026;-87
2022/08/02 00:19:16;;;;;;;7.70;4.20;;;;;;;-148.88;90.97;75817.84;4996507;28;20027;-88
2022/08/02 00:21:42;;;;;;;8.60;3.58;;;;;;;-148.88;90.67;75828.00;4996334;28;20027;-87
2022/08/02 00:24:07;;;;;;;8.15;3.90;;;;;;;-148.88;90.85;75832.06;4996241;28;20034;-88
2022/08/02 00:26:32;;;;;;;12.38;3.72;;;;;;;-148.88;90.61;75825.97;4994865;28;20038;-88
2022/08/02 00:28:58;;;;;;;9.18;3.80;;;;;;;-148.88;91.07;75830.03;4996404;28;20050;-88
2022/08/02 00:31:23;;;;;;;10.55;4.25;;;;;;;-148.88;91.17;75834.09;4995006;28;20029;-87
2022/08/02 00:33:48;;;;;;;9.57;4.82;;;;;;;-148.88;91.48;75836.13;4996086;28;20022;-87
2022/08/02 00:36:14;;;;;;;10.15;4.18;;;;;;;-148.88;91.88;75844.25;4996147;28;20477;-88
2022/08/02 00:38:39;;;;;;;11.63;4.38;;;;;;;-148.88;92.00;75846.28;4996011;28;20022;-86
2022/08/02 00:41:11;;;;;;;10.73;4.05;;;;;;;-148.88;91.47;75862.53;4996039;28;20038;-87
2022/08/02 00:43:36;;;;;;;8.95;3.95;;;;;;;-148.88;92.07;75862.53;4994262;28;20022;-87
2022/08/02 00:46:01;;;;;;;9.65;4.10;;;;;;;-148.88;92.19;75862.53;5017253;23;20042;-86
2022/08/02 00:48:26;;;;;;;11.82;4.47;;;;;;;-148.88;91.88;75862.53;4995316;28;20082;-86
2022/08/02 00:50:52;;;;;;;10.45;3.88;;;;;;;-148.88;92.21;75868.63;4995741;28;20080;-86
2022/08/02 00:53:17;;;;;;;8.60;4.30;;;;;;;-148.88;92.53;75862.53;4994339;28;20035;-86
2022/08/02 00:55:42;;;;;;;11.15;3.97;;;;;;;-148.88;92.47;75854.41;4995626;28;20077;-86
2022/08/02 00:58:08;;;;;;;8.88;3.67;;;;;;;-148.88;92.31;75858.47;4995693;28;20401;-86
2022/08/02 01:00:33;;;;;;;8.90;3.95;;;;;;;-148.88;92.04;75870.66;4995724;28;20105;-85
2022/08/02 01:02:58;;;;;;;8.75;4.10;;;;;;;-148.88;91.88;75866.59;4994163;28;20126;-86
2022/08/02 01:05:24;;;;;;;9.75;3.90;;;;;;;-148.88;92.73;75876.75;4994128;28;20022;-86
2022/08/02 01:07:49;;;;;;;11.77;4.47;;;;;;;-148.88;92.68;75874.72;4994084;28;20399;-86
2022/08/02 01:10:14;;;;;;;10.75;4.20;;;;;;;-148.88;92.75;75870.66;4995127;28;20101;-86
2022/08/02 01:12:39;;;;;;;6.57;4.10;;;;;;;-148.88;92.62;75866.59;4995453;28;20387;-85
2022/08/02 01:15:08;;;;;;;9.80;4.18;;;;;;;-148.88;91.99;75884.88;4993797;28;20030;-86
2022/08/02 01:17:43;;;;;;;9.65;4.35;;;;;;;-148.88;92.53;75886.91;4995036;28;20404;-86
2022/08/02 01:20:43;;;;;;;9.48;4.43;;;;;;;-148.88;93.44;75884.88;4993954;28;20507;-86
2022/08/02 01:23:33;;;;;;;11.05;4.97;;;;;;;-148.88;93.05;75890.97;4995033;28;20401;-86
2022/08/02 01:29:36;;;;;;;11.77;4.72;;;;;;;-148.88;93.93;75890.97;4995271;28;20041;-85
2022/08/02 01:32:17;;;;;;;14.50;4.78;;;;;;;-148.88;93.97;75895.03;4993721;28;20026;-84
2022/08/02 01:34:48;;;;;;;10.80;4.90;;;;;;;-148.88;93.99;75890.97;4995129;28;20026;-86
2022/08/02 01:37:19;;;;;;;10.77;4.55;;;;;;;-148.88;93.43;75890.97;4993610;28;20022;-86
2022/08/02 01:39:49;;;;;;;12.07;4.80;;;;;;;-148.88;93.82;75897.06;4994883;28;20049;-86
2022/08/02 01:42:16;;;;;;;9.07;4.57;;;;;;;-148.88;92.88;75907.22;4993471;28;20440;-85
2022/08/02 01:44:44;;;;;;;8.50;4.47;;;;;;;-148.88;93.82;75913.31;4994729;28;20030;-86
2022/08/02 01:47:16;;;;;;;9.68;4.90;;;;;;;-148.88;93.97;75921.44;4994393;28;20048;-85
2022/08/02 01:49:45;;;;;;;9.75;5.07;;;;;;;-148.88;94.53;75923.47;4993468;28;20019;-87
2022/08/02 01:52:21;;;;;;;9.52;5.88;;;;;;;-148.88;95.07;75923.47;4994559;28;20029;-86
2022/08/02 01:55:01;;;;;;;10.88;4.80;;;;;;;-148.88;95.11;75915.34;4993343;28;20022;-86
2022/08/02 01:57:32;;;;;;;12.43;5.60;;;;;;;-148.88;94.81;75923.47;4993659;28;20031;-85
2022/08/02 02:00:00;;;;;;;9.23;4.95;;;;;;;-148.88;95.09;75923.47;4994483;28;20026;-86
2022/08/02 02:02:27;;;;;;;11.13;5.10;;;;;;;-148.88;94.89;75933.63;4994603;28;20050;-85
2022/08/02 02:04:56;;;;;;;9.45;5.43;;;;;;;-148.88;95.45;75935.66;4993822;28;20022;-86
2022/08/02 02:07:22;;;;;;;10.30;5.55;;;;;;;-148.88;95.87;75929.56;4993390;28;20077;-85
2022/08/02 02:09:49;;;;;;;10.98;5.50;;;;;;;-148.88;96.28;75943.78;4992986;28;20018;-86
2022/08/02 02:12:16;;;;;;;9.68;5.95;;;;;;;-148.88;96.73;75935.66;4994442;28;20026;-86
2022/08/02 02:14:43;;;;;;;9.82;5.53;;;;;;;-148.88;96.71;75931.59;4994251;28;20466;-86
2022/08/02 02:17:11;;;;;;;9.13;5.03;;;;;;;-148.88;96.44;75933.63;4993170;28;20030;-87
2022/08/02 02:19:38;;;;;;;9.75;5.32;;;;;;;-148.88;95.59;75947.84;4994174;28;20030;-85
2022/08/02 02:22:04;;;;;;;10.63;5.95;;;;;;;-148.88;96.08;75951.91;4994097;28;20022;-85
2022/08/02 02:24:30;;;;;;;15.20;5.57;;;;;;;-148.88;96.78;75943.78;4993956;28;20543;-86
2022/08/02 02:27:00;;;;;;;8.07;5.25;;;;;;;-148.88;96.64;75933.63;4993938;28;20022;-86
2022/08/02 02:29:28;;;;;;;7.18;4.90;;;;;;;-148.88;96.13;75925.50;4992869;28;20029;-85
2022/08/02 02:31:54;;;;;;;10.25;5.35;;;;;;;-148.88;95.84;75919.41;4993127;28;20022;-86
2022/08/02 02:34:32;;;;;;;9.00;5.47;;;;;;;-148.88;95.81;75913.31;4993063;28;20380;-86
2022/08/02 02:37:01;;;;;;;9.85;5.20;;;;;;;-148.88;96.01;75919.41;4992662;28;20026;-86
2022/08/02 02:39:27;;;;;;;8.35;5.47;;;;;;;-148.88;95.76;75919.41;4993821;28;20070;-86
2022/08/02 02:41:56;;;;;;;9.32;5.10;;;;;;;-148.88;96.09;75923.47;4993869;28;20053;-86
2022/08/02 02:44:23;;;;;;;13.35;6.20;;;;;;;-148.88;96.86;75927.53;4992897;28;20027;-86
2022/08/02 02:46:51;;;;;;;16.30;6.63;;;;;;;-148.88;97.07;75931.59;4992662;28;20058;-86
2022/08/02 02:49:19;;;;;;;11.68;6.43;;;;;;;-148.88;97.22;75939.72;4992956;28;20026;-86
2022/08/02 02:51:44;;;;;;;10.27;5.82;;;;;;;-148.88;97.81;75941.75;4994019;28;20030;-86
2022/08/02 02:54:11;;;;;;;11.05;6.05;;;;;;;-148.88;97.65;75953.94;4993854;28;20019;-86
2022/08/02 02:56:38;;;;;;;12.55;6.00;;;;;;;-148.88;97.92;75949.88;4994124;28;20030;-86
2022/08/02 02:59:06;;;;;;;12.23;6.43;;;;;;;-148.88;98.57;75943.78;4993851;28;20033;-86
2022/08/02 03:01:32;;;;;;;11.63;6.25;;;;;;;-148.88;98.28;75931.59;4992519;28;20022;-86
2022/08/02 03:04:05;;;;;;;9.90;5.88;;;;;;;-148.88;98.45;75925.50;4992446;28;20027;-86
2022/08/02 03:06:30;;;;;;;11.80;6.43;;;;;;;-148.88;97.66;75935.66;4992434;28;20550;-86
2022/08/02 03:08:56;;;;;;;12.15;6.50;;;;;;;-148.88;97.88;75960.03;4997258;28;20034;-86
2022/08/02 03:11:23;;;;;;;14.23;6.72;;;;;;;-148.88;99.46;75976.28;4996275;28;20030;-86
2022/08/02 03:13:49;;;;;;;13.40;6.75;;;;;;;-148.88;99.71;75976.28;4996168;28;20037;-86
2022/08/02 03:16:15;;;;;;;11.90;6.63;;;;;;;-148.88;99.72;75966.13;4997428;28;20033;-85
2022/08/02 03:18:42;;;;;;;12.43;7.10;;;;;;;-148.88;99.98;75968.16;4997391;28;20022;-86
2022/08/02 03:21:12;;;;;;;11.55;6.55;;;;;;;-148.88;99.51;75968.16;4997257;28;20026;-86
2022/08/02 03:23:42;;;;;;;9.95;6.55;;;;;;;-148.88;99.50;75960.03;4996387;28;20045;-86
2022/08/02 03:26:08;;;;;;;12.38;6.57;;;;;;;-148.88;99.17;75964.09;4995913;28;20026;-86
2022/08/02 03:28:33;;;;;;;9.00;5.85;;;;;;;-148.88;98.65;75968.16;4997277;28;20395;-85
2022/08/02 03:31:00;;;;;;;14.82;6.72;;;;;;;-148.88;98.58;75966.13;4997145;28;20026;-86
2022/08/02 03:33:26;;;;;;;11.48;6.20;;;;;;;-148.88;98.63;75970.19;4996232;28;20105;-86
2022/08/02 03:35:54;;;;;;;9.95;6.07;;;;;;;-148.88;98.26;75968.16;4996151;28;20033;-85
2022/08/02 03:38:22;;;;;;;9.23;5.90;;;;;;;-148.88;98.25;75962.06;4997112;28;20519;-84
2022/08/02 03:40:49;;;;;;;10.95;6.25;;;;;;;-148.88;98.30;75960.03;4997040;28;20026;-86
2022/08/02 03:43:15;;;;;;;10.07;6.20;;;;;;;-148.88;98.31;75962.06;4995861;28;20496;-86
2022/08/02 03:45:43;;;;;;;13.77;6.57;;;;;;;-148.88;97.81;75964.09;4997062;28;20034;-86
2022/08/02 03:48:10;;;;;;;10.02;6.30;;;;;;;-148.88;98.03;75955.97;4996587;28;20389;-86
2022/08/02 03:50:37;;;;;;;10.18;6.50;;;;;;;-148.88;97.95;75955.97;4995648;28;20476;-86
2022/08/02 03:53:03;;;;;;;14.05;6.80;;;;;;;-148.88;97.91;75960.03;4996849;28;20033;-86
2022/08/02 03:55:28;;;;;;;11.82;6.55;;;;;;;-148.88;98.05;75951.91;4996625;28;20149;-86
2022/08/02 03:57:54;;;;;;;12.63;7.30;;;;;;;-148.88;98.33;75947.84;4996546;28;20034;-87
2022/08/02 04:00:21;;;;;;;11.90;6.78;;;;;;;-148.88;98.35;75949.88;4995280;28;20041;-86
2022/08/02 04:02:48;;;;;;;12.40;6.85;;;;;;;-148.88;98.51;75958.00;4996109;28;20036;-87
2022/08/02 04:05:16;;;;;;;13.93;7.30;;;;;;;-148.88;98.60;75955.97;4995284;28;20019;-85
2022/08/02 04:07:42;;;;;;;13.50;7.60;;;;;;;-148.88;99.13;75960.03;4996336;28;20441;-87
2022/08/02 04:10:08;;;;;;;12.73;7.53;;;;;;;-148.88;98.86;75953.94;4995233;28;20389;-87
2022/08/02 04:12:34;;;;;;;17.67;7.80;;;;;;;-148.88;99.10;75953.94;4995492;28;20022;-87
2022/08/02 04:15:00;;;;;;;12.43;7.90;;;;;;;-148.88;99.41;75960.03;4995554;28;20073;-86
2022/08/02 04:17:30;;;;;;;13.32;6.85;;;;;;;-148.88;99.51;75955.97;4996283;28;20026;-87
2022/08/02 04:20:02;;;;;;;13.25;7.25;;;;;;;-148.88;99.35;75960.03;4994785;28;20023;-87
2022/08/02 04:22:39;;;;;;;13.77;7.13;;;;;;;-148.88;99.54;75964.09;4996330;28;20038;-86
2022/08/02 04:25:07;;;;;;;16.15;6.63;;;;;;;-148.88;99.21;75976.28;4994879;28;20033;-88
2022/08/02 04:27:35;;;;;;;13.00;6.43;;;;;;;-148.88;99.34;75976.28;4996119;28;20032;-85
2022/08/02 04:30:02;;;;;;;12.00;6.93;;;;;;;-148.88;99.79;75970.19;4994781;28;20026;-87
2022/08/02 04:32:29;;;;;;;12.88;7.13;;;;;;;-148.88;99.67;75968.16;4995838;28;20027;-87
2022/08/02 04:34:54;;;;;;;12.93;7.13;;;;;;;-148.88;99.62;75970.19;4994767;28;20030;-87
2022/08/02 04:37:20;;;;;;;14.38;7.28;;;;;;;-148.88;100.00;75972.22;4995010;28;20094;-85
2022/08/02 04:39:45;;;;;;;15.50;7.60;;;;;;;-148.88;100.00;75980.34;4994644;28;20022;-87
2022/08/02 04:42:19;;;;;;;14.65;6.95;;;;;;;-148.88;100.00;75982.38;4995919;28;20117;-86
2022/08/02 04:44:45;;;;;;;10.93;6.78;;;;;;;-148.88;100.00;75980.34;4994807;28;20029;-87
2022/08/02 04:47:10;;;;;;;12.05;6.38;;;;;;;-148.88;100.00;75972.22;4994482;28;20125;-86
2022/08/02 04:49:36;;;;;;;10.25;6.57;;;;;;;-148.88;100.00;75976.28;4994599;28;20029;-86
2022/08/02 04:52:01;;;;;;;10.85;6.40;;;;;;;-148.88;100.00;75970.19;4996112;28;20116;-85
2022/08/02 04:54:26;;;;;;;13.02;7.00;;;;;;;-148.88;100.00;75978.31;4994567;28;20113;-86
2022/08/02 04:56:51;;;;;;;12.93;7.20;;;;;;;-148.88;100.00;75978.31;4994204;28;20037;-86
2022/08/02 04:59:17;;;;;;;12.20;6.90;;;;;;;-148.88;100.00;75980.34;4994373;28;20084;-87
2022/08/02 05:01:43;;;;;;;13.95;7.47;;;;;;;-148.88;100.00;75980.34;4995371;28;20116;-86
2022/08/02 05:04:08;;;;;;;10.40;7.10;;;;;;;-148.88;100.00;75982.38;4994081;28;20022;-86
2022/08/02 05:06:33;;;;;;;15.20;7.50;;;;;;;-148.88;100.00;75990.50;4994588;28;20081;-86
2022/08/02 05:08:59;;;;;;;15.73;7.25;;;;;;;-148.88;100.00;75978.31;4995413;28;20475;-86
2022/08/02 05:11:24;;;;;;;12.52;7.32;;;;;;;-148.88;100.00;75972.22;4994395;28;20019;-86
2022/08/02 05:13:50;;;;;;;11.02;7.10;;;;;;;-148.88;100.00;75968.16;4994241;28;20022;-87
2022/08/02 05:16:16;;;;;;;14.15;7.28;;;;;;;-148.88;100.00;75955.97;4995009;28;20113;-87
2022/08/02 05:18:41;;;;;;;13.27;8.20;;;;;;;-148.88;100.00;75947.84;4995103;28;20053;-86
2022/08/02 05:21:06;;;;;;;13.85;8.45;;;;;;;-148.88;100.00;75943.78;4993973;28;20034;-86
2022/08/02 05:23:32;;;;;;;15.07;7.72;;;;;;;-148.88;100.00;75931.59;4995095;28;20026;-86
2022/08/02 05:25:57;;;;;;;13.38;8.00;;;;;;;-148.88;100.00;75925.50;4993915;28;20037;-86
2022/08/02 05:28:23;;;;;;;14.27;7.30;;;;;;;-148.88;100.00;75927.53;4994977;28;20058;-86
2022/08/02 05:30:49;;;;;;;12.50;8.55;;;;;;;-148.88;100.00;75927.53;4994031;28;20050;-87
2022/08/02 05:33:14;;;;;;;12.25;8.10;;;;;;;-148.88;100.00;75915.34;4994014;28;20553;-86
2022/08/02 05:35:40;;;;;;;18.45;8.68;;;;;;;-148.88;100.00;75915.34;4994355;28;20022;-86
2022/08/02 05:38:05;;;;;;;19.38;8.60;;;;;;;-148.88;100.00;75907.22;4993667;28;20026;-85
2022/08/02 05:40:31;;;;;;;13.20;8.82;;;;;;;-148.88;100.00;75903.16;4993723;28;20026;-86
2022/08/02 05:42:56;;;;;;;15.90;8.75;;;;;;;-148.88;100.00;75893.00;4993881;28;20196;-87
2022/08/02 05:45:22;;;;;;;11.98;8.40;;;;;;;-148.88;100.00;75884.88;4993662;28;20381;-86
2022/08/02 05:47:47;;;;;;;13.30;8.70;;;;;;;-148.88;100.00;75878.78;4994920;28;20030;-86
2022/08/02 05:50:12;;;;;;;14.27;8.82;;;;;;;-148.88;100.00;75878.78;4994916;28;20104;-86
2022/08/02 05:52:49;;;;;;;13.30;8.38;;;;;;;-148.88;100.00;75874.72;4994421;28;20032;-86
2022/08/02 05:55:17;;;;;;;19.02;9.93;;;;;;;-148.88;100.00;75874.72;4993323;28;20022;-86
2022/08/02 05:58:01;;;;;;;12.15;8.90;;;;;;;-148.88;100.00;75870.66;4998602;28;20073;-87
2022/08/02 06:00:30;;;;;;;13.55;9.60;;;;;;;-148.88;100.00;75860.50;4995826;28;20032;-86
2022/08/02 06:03:04;;;;;;;16.90;10.02;;;;;;;-148.88;100.00;75860.50;4995266;28;20548;-87
2022/08/02 06:05:48;;;;;;;15.88;9.85;;;;;;;-148.88;100.00;75848.31;4993940;28;20128;-87
2022/08/02 06:08:13;;;;;;;15.57;10.45;;;;;;;-148.88;100.00;75840.19;4995344;28;20026;-86
2022/08/02 06:10:39;;;;;;;16.67;10.20;;;;;;;-148.88;100.00;75817.84;4993561;28;20053;-86
2022/08/02 06:13:10;;;;;;;16.02;10.30;;;;;;;-148.88;100.00;75815.81;4993569;28;20385;-86
2022/08/02 06:15:37;;;;;;;15.93;9.50;;;;;;;-148.88;100.00;75811.75;4994622;28;20022;-86
2022/08/02 06:18:04;;;;;;;16.05;10.25;;;;;;;-148.88;100.00;75809.72;4994369;28;20022;-86
2022/08/02 06:20:36;;;;;;;16.40;11.02;;;;;;;-148.88;100.00;75803.63;4994521;28;20030;-87
2022/08/02 06:23:07;;;;;;;15.68;10.85;;;;;;;-148.88;100.00;75793.47;4992868;28;20065;-87
2022/08/02 06:25:34;;;;;;;15.43;10.30;;;;;;;-148.88;100.00;75781.28;4993101;28;20033;-86
2022/08/02 06:28:04;;;;;;;16.55;11.18;;;;;;;-148.88;100.00;75765.03;4994308;28;20160;-86
2022/08/02 06:30:30;;;;;;;16.63;10.23;;;;;;;-148.88;100.00;75738.63;4993104;28;20037;-87
2022/08/02 06:32:56;;;;;;;30.85;11.70;;;;;;;-148.88;100.00;75734.56;4993761;28;20018;-87
2022/08/02 06:35:28;;;;;;;17.15;11.05;;;;;;;-148.88;100.00;75722.38;4992752;28;20113;-86
2022/08/02 06:37:59;;;;;;;13.25;10.20;;;;;;;-148.88;100.00;75710.19;4992831;28;20038;-86
2022/08/02 06:40:39;;;;;;;17.98;10.63;;;;;;;-148.88;100.00;75691.91;4993053;28;20505;-84
2022/08/02 06:43:20;;;;;;;15.00;11.23;;;;;;;-148.88;100.00;75667.53;4996252;28;20030;-87
2022/08/02 06:45:46;;;;;;;13.27;10.40;;;;;;;-148.88;100.00;75647.22;5039139;23;20110;-85
2022/08/02 06:48:11;;;;;;;19.83;11.05;;;;;;;-148.88;100.00;75622.84;4996700;28;20034;-86
2022/08/02 06:50:37;;;;;;;14.85;10.98;;;;;;;-148.88;100.00;75610.66;4997826;28;20026;-86
2022/08/02 06:53:05;;;;;;;14.20;10.95;;;;;;;-148.88;100.00;75604.56;4998092;28;20097;-86
2022/08/02 06:55:31;;;;;;;21.45;12.57;;;;;;;-148.88;100.00;75578.19;4997765;28;20400;-86
2022/08/02 06:57:57;;;;;;;19.05;12.80;;;;;;;-148.88;100.00;75545.69;4997130;28;20053;-86
2022/08/02 07:00:23;;;;;;;18.70;12.50;;;;;;;-148.88;100.00;75529.44;4998099;28;20030;-86
2022/08/02 07:02:48;;;;;;;17.70;11.85;;;;;;;-148.88;100.00;75513.19;4997782;28;20026;-86
2022/08/02 07:05:14;;;;;;;18.13;12.65;;;;;;;-148.88;100.00;75501.00;4997965;28;20409;-86
2022/08/02 07:07:39;;;;;;;16.00;11.02;;;;;;;-148.88;100.00;75476.63;4997950;28;20125;-86
2022/08/02 07:10:05;;;;;;;16.42;12.02;;;;;;;-148.88;100.00;75458.34;4997839;28;20109;-86
2022/08/02 07:12:32;;;;;;;18.90;12.02;;;;;;;-148.88;100.00;75452.25;4996854;28;20025;-85
2022/08/02 07:14:59;;;;;;;15.77;11.90;;;;;;;-148.88;100.00;75440.06;4996423;28;20026;-86
2022/08/02 07:17:24;;;;;;;17.00;11.13;;;;;;;-148.88;100.00;75431.94;4997628;28;20101;-86
2022/08/02 07:19:50;;;;;;;15.95;11.43;;;;;;;-148.88;100.00;75425.84;4997530;28;20609;-86
2022/08/02 07:22:17;;;;;;;14.02;10.48;;;;;;;-148.88;100.00;75409.59;4996296;28;20464;-86
2022/08/02 07:24:42;;;;;;;13.57;10.40;;;;;;;-148.88;100.00;75385.22;4997478;28;20504;-86
2022/08/02 07:27:08;;;;;;;16.38;10.63;;;;;;;-148.88;100.00;75377.09;4996275;28;20030;-86
2022/08/02 07:29:33;;;;;;;15.30;10.10;;;;;;;-148.88;99.67;75354.75;4997673;28;20046;-86
2022/08/02 07:31:58;;;;;;;15.77;9.50;;;;;;;-148.88;96.92;75322.25;4997506;28;20026;-86
2022/08/02 07:34:23;;;;;;;12.10;9.57;;;;;;;-148.88;95.90;75310.06;4997487;28;20022;-85
2022/08/02 07:36:49;;;;;;;15.70;8.95;;;;;;;-148.88;96.37;75289.75;4996203;28;20041;-87
2022/08/02 07:39:14;;;;;;;13.43;9.40;;;;;;;-148.88;95.19;75283.66;4997295;28;20472;-85
2022/08/02 07:41:39;;;;;;;15.82;8.20;;;;;;;-148.88;94.99;75271.50;4998157;28;20053;-87
2022/08/02 07:44:05;;;;;;;14.82;6.40;;;;;;;-148.88;90.92;75257.28;4998264;28;20026;-86
2022/08/02 07:46:32;;;;;;;10.25;6.10;;;;;;;-148.88;91.51;75243.06;4997051;28;20489;-86
2022/08/02 07:48:57;;;;;;;11.20;6.57;;;;;;;-148.88;88.81;75224.78;4998093;28;20022;-86
2022/08/02 07:51:22;;;;;;;13.43;6.57;;;;;;;-148.88;87.11;75216.66;4998546;28;20031;-86
2022/08/02 07:53:48;;;;;;;12.40;6.80;;;;;;;-148.88;87.50;75204.47;4996991;28;20031;-87
2022/08/02 07:56:13;;;;;;;10.30;6.35;;;;;;;-148.88;83.60;75178.06;4997915;28;20030;-86
2022/08/02 07:58:40;;;;;;;13.02;6.00;;;;;;;-148.88;82.44;75167.91;4998771;28;20031;-87
2022/08/02 08:01:06;;;;;;;7.88;5.32;;;;;;;-148.88;79.84;75141.50;4998832;28;20026;-88
2022/08/02 08:03:31;;;;;;;12.55;6.50;;;;;;;-148.88;80.32;75129.31;4997775;28;20385;-86
2022/08/02 08:05:56;;;;;;;10.77;5.95;;;;;;;-148.88;80.75;75119.16;4995693;28;20382;-87
2022/08/02 08:08:22;;;;;;;9.85;5.53;;;;;;;-148.88;79.96;75115.09;4996771;28;20090;-87
2022/08/02 08:10:47;;;;;;;8.18;5.35;;;;;;;-148.88;78.37;75090.72;4996665;28;20022;-86
2022/08/02 08:13:14;;;;;;;10.55;5.10;;;;;;;-148.88;78.29;75070.44;4996552;28;20470;-87
2022/08/02 08:15:39;;;;;;;9.98;5.35;;;;;;;-148.88;76.79;75066.38;4996476;28;20022;-86
2022/08/02 08:18:04;;;;;;;7.60;4.10;;;;;;;-148.88;72.83;75046.06;4996447;28;20034;-86
2022/08/02 08:20:30;;;;;;;9.50;3.70;;;;;;;-148.88;71.07;75046.06;4996542;28;20026;-86
2022/08/02 08:22:55;;;;;;;15.38;4.13;;;;;;;-148.88;71.83;75027.78;4996213;28;20022;-86
2022/08/02 08:25:20;;;;;;;9.27;4.15;;;;;;;-148.88;70.80;75027.78;4996408;28;20120;-86
2022/08/02 08:27:47;;;;;;;5.00;3.20;;;;;;;-148.88;70.34;75005.44;4996439;28;20040;-86
2022/08/02 08:30:13;;;;;;;8.50;3.30;;;;;;;-148.88;70.03;74989.19;4995300;28;20030;-87
2022/08/02 08:32:38;;;;;;;6.45;3.47;;;;;;;-148.88;66.84;74972.94;4996425;28;20503;-87
2022/08/02 08:35:05;;;;;;;6.82;3.50;;;;;;;-148.88;66.09;74950.59;4995120;28;20382;-87
2022/08/02 08:37:35;;;;;;;7.93;3.20;;;;;;;-148.88;67.36;74952.63;4994782;28;20050;-86
2022/08/02 08:40:00;;;;;;;6.75;3.50;;;;;;;-148.88;67.99;74948.56;4994940;28;20405;-87
2022/08/02 08:42:26;;;;;;;6.60;3.80;;;;;;;-148.88;67.56;74930.31;4995597;28;20026;-86
2022/08/02 08:44:52;;;;;;;7.80;3.92;;;;;;;-148.88;67.81;74916.09;4995963;28;20027;-86
2022/08/02 08:47:21;;;;;;;7.80;3.50;;;;;;;-148.88;65.45;74903.91;4996388;28;20064;-86
2022/08/02 08:49:50;;;;;;;7.88;3.70;;;;;;;-148.88;66.47;74855.16;4995119;28;20029;-87
2022/08/02 08:52:18;;;;;;;8.70;3.63;;;;;;;-148.88;64.51;74859.22;4994594;28;20031;-87
2022/08/02 08:54:47;;;;;;;9.60;3.58;;;;;;;-148.88;65.13;74855.16;4994694;28;20034;-87
2022/08/02 08:57:14;;;;;;;8.55;3.15;;;;;;;-148.88;62.88;74851.09;4994576;28;20026;-87
2022/08/02 08:59:39;;;;;;;7.43;3.75;;;;;;;-148.88;62.51;74834.84;4995860;28;20141;-87
2022/08/02 09:02:05;;;;;;;7.90;3.45;;;;;;;-148.88;64.89;74822.66;4994496;28;20038;-85
2022/08/02 09:04:31;;;;;;;6.78;3.22;;;;;;;-148.88;63.80;74814.53;4995249;28;20019;-88
2022/08/02 09:06:56;;;;;;;7.90;3.13;;;;;;;-148.88;60.43;74782.06;4993906;28;20113;-87
2022/08/02 09:09:21;;;;;;;5.05;3.17;;;;;;;-148.88;58.04;74786.13;4995782;28;20030;-86
2022/08/02 09:11:47;;;;;;;5.78;2.95;;;;;;;-148.88;59.36;74765.81;4994252;28;20113;-87
2022/08/02 09:14:26;;;;;;;6.03;2.72;;;;;;;-148.88;61.09;74749.56;4993978;28;20165;-87
2022/08/02 09:16:51;;;;;;;10.95;2.90;;;;;;;-148.88;59.77;74761.75;4995544;28;20022;-87
2022/08/02 09:19:25;;;;;;;6.07;2.72;;;;;;;-148.88;60.11;74741.44;4995146;28;20547;-87
2022/08/02 09:22:04;;;;;;;5.70;2.80;;;;;;;-148.88;59.15;74729.25;4995271;28;20035;-86
2022/08/02 09:24:40;;;;;;;6.63;3.22;;;;;;;-148.88;58.29;74725.19;4995310;28;20596;-87
2022/08/02 09:27:10;;;;;;;6.53;3.13;;;;;;;-148.88;56.66;74721.13;4995240;28;20030;-87
2022/08/02 09:29:36;;;;;;;9.13;3.70;;;;;;;-148.88;57.06;74688.66;4995115;28;20026;-86
2022/08/02 09:32:03;;;;;;;6.82;3.53;;;;;;;-148.88;57.67;74684.59;4995052;28;20080;-87
2022/08/02 09:34:55;;;;;;;6.60;3.30;;;;;;;-148.88;57.49;74658.19;4995143;28;20045;-86
2022/08/02 09:37:23;;;;;;;6.55;3.60;;;;;;;-148.88;57.30;74615.53;4995217;28;20038;-88
2022/08/02 09:39:48;;;;;;;6.97;3.25;;;;;;;-148.88;59.00;74587.13;4995604;28;20026;-87
2022/08/02 09:42:14;;;;;;;6.72;3.40;;;;;;;-148.88;56.23;74595.25;4993684;28;20033;-87
2022/08/02 09:44:39;;;;;;;5.63;2.97;;;;;;;-148.88;58.19;74566.81;4994793;28;20388;-87
2022/08/02 09:47:13;;;;;;;5.07;2.75;;;;;;;-148.88;55.40;74570.88;4993677;28;20038;-87
2022/08/02 09:49:45;;;;;;;7.10;3.28;;;;;;;-148.88;54.78;74568.84;4994974;28;20026;-87
2022/08/02 09:52:11;;;;;;;5.43;2.95;;;;;;;-148.88;54.22;74562.75;4995157;28;20057;-86
2022/08/02 09:54:38;;;;;;;4.45;3.20;;;;;;;-148.88;51.96;74558.69;4993380;28;20515;-87
2022/08/02 09:57:04;;;;;;;6.03;2.88;;;;;;;-148.88;54.17;74520.09;4994619;28;20034;-86
2022/08/02 09:59:30;;;;;;;7.80;2.72;;;;;;;-148.88;56.01;74495.75;4994420;28;20084;-88
2022/08/02 10:01:57;;;;;;;6.55;2.88;;;;;;;-148.88;54.40;74483.56;4994719;28;20463;-86
2022/08/02 10:04:24;;;;;;;6.07;2.78;;;;;;;-148.88;54.02;74471.38;4995117;28;20029;-88
2022/08/02 10:06:51;;;;;;;5.40;2.80;;;;;;;-148.88;53.41;74465.28;4994599;28;20084;-87
2022/08/02 10:09:18;;;;;;;6.72;2.88;;;;;;;-148.88;53.41;74461.22;4993753;28;20030;-87
2022/08/02 10:11:43;;;;;;;4.97;2.40;;;;;;;-148.88;51.90;74428.72;4994406;28;20030;-87
2022/08/02 10:14:09;;;;;;;4.40;2.20;;;;;;;-148.88;51.21;74434.81;4993171;28;20025;-86
2022/08/02 10:16:38;;;;;;;4.25;2.60;;;;;;;-148.88;51.28;74380.00;4993687;28;20033;-85
2022/08/02 10:19:03;;;;;;;3.80;2.17;;;;;;;-148.88;50.94;74359.69;4994146;28;20030;-86
2022/08/02 10:21:38;;;;;;;8.02;2.15;;;;;;;-148.88;51.02;74359.69;4994683;28;20029;-87
2022/08/02 10:24:07;;;;;;;6.82;2.35;;;;;;;-148.88;49.73;74363.75;4992994;28;20022;-86
2022/08/02 10:26:33;;;;;;;3.50;1.90;;;;;;;-148.88;47.84;74388.13;4994177;28;20053;-85
2022/08/02 10:28:59;;;;;;;3.63;1.73;;;;;;;-148.88;49.90;74357.66;4994237;28;20396;-87
2022/08/02 10:31:29;;;;;;;3.92;1.90;;;;;;;-148.88;48.19;74319.09;4994141;28;20028;-87
2022/08/02 10:33:58;;;;;;;5.68;1.83;;;;;;;-148.88;47.03;74335.31;4994369;28;20019;-87
2022/08/02 10:36:26;;;;;;;4.97;1.85;;;;;;;-148.88;47.41;74292.69;4993937;28;20026;-87
2022/08/02 10:38:53;;;;;;;6.05;2.05;;;;;;;-148.88;48.77;74266.28;4994136;28;20030;-86
2022/08/02 10:41:43;;;;;;;4.30;2.00;;;;;;;-148.88;47.53;74227.72;4994150;28;20029;-87
2022/08/02 10:44:20;;;;;;;5.60;2.40;;;;;;;-148.88;45.75;74235.84;4993955;28;20022;-88
2022/08/02 10:46:45;;;;;;;5.22;1.98;;;;;;;-148.88;45.74;74262.22;4994479;28;20038;-87
2022/08/02 10:49:11;;;;;;;5.65;2.50;;;;;;;-148.88;45.44;74276.44;4993917;28;20029;-88
2022/08/02 10:52:13;;;;;;;5.35;1.88;;;;;;;-148.88;47.43;74394.22;4993065;28;20042;-85
2022/08/02 10:54:41;;;;;;;4.68;1.98;;;;;;;-148.88;47.86;74388.13;4934465;29;20571;-87
2022/08/02 10:57:18;;;;;;;4.20;2.03;;;;;;;-148.88;48.94;74327.19;4983209;28;20193;-87
2022/08/02 10:59:43;;;;;;;6.68;2.00;;;;;;;-148.88;49.58;74272.38;4994101;28;20022;-87
2022/08/02 11:02:10;;;;;;;4.47;2.30;;;;;;;-148.88;48.33;74233.81;4993966;28;20037;-88
2022/08/02 11:04:35;;;;;;;4.38;2.45;;;;;;;-148.88;47.74;74268.31;4993968;28;20049;-87
2022/08/02 11:07:18;;;;;;;5.53;2.20;;;;;;;-148.88;48.78;74282.53;4994373;28;20470;-86
2022/08/02 11:09:44;;;;;;;;;;;;;;;-148.88;48.06;74223.66;4993256;28;20268;-88
2022/08/02 11:12:12;;;;;;;4.00;2.20;;;;;;;-148.88;48.58;74211.47;4994202;28;19917;-86
2022/08/02 11:14:40;;;;;;;6.13;2.33;;;;;;;-148.88;48.89;74185.06;4994106;28;20108;-87
2022/08/02 11:17:14;;;;;;;4.70;2.00;;;;;;;-148.88;46.76;74144.47;4992727;28;20038;-87